MDT,Max TemperatureF,Mean TemperatureF,Min TemperatureF,Max Dew PointF,MeanDew PointF,Min DewpointF,Max Humidity, Mean Humidity, Min Humidity, Max Sea Level PressureIn, Mean Sea Level PressureIn, Min Sea Level PressureIn, Max VisibilityMiles, Mean VisibilityMiles, Min VisibilityMiles, Max Wind SpeedMPH, Mean Wind SpeedMPH, Max Gust SpeedMPH,PrecipitationIn, CloudCover, Events, WindDirDegrees
2013-8-1,55,48,42,45,38,30,100,66,41,30.85,30.79,30.69,,,,25,12,32,0.00,6,Thunderstorm,246
2013-8-2,62,52,41,46,40,32,100,71,34,30.76,30.71,30.63,,,,36,22,45,0.00,3,Thunderstorm,268
2013-8-3,60,52,42,45,40,36,93,72,51,30.81,30.78,30.74,,,,31,12,30,0.00,4,Thunderstorm,265
2013-8-4,64,53,42,45,39,32,100,68,32,30.83,30.80,30.77,,,,32,15,40,0.00,3,Thunderstorm,262
2013-8-5,60,51,42,45,41,36,93,80,45,30.79,30.75,30.71,,,,25,11,23,0.00,5,Thunderstorm,236
2013-8-6,55,48,41,45,39,34,100,79,51,30.72,30.69,30.67,,,,23,13,21,0.00,5,Thunderstorm,260
2013-8-7,44,42,39,41,37,34,100,83,70,30.68,30.64,30.61,,,,16,8,18,0.00,7,Thunderstorm,78
2013-8-8,53,45,37,37,34,28,100,71,47,30.71,30.63,30.57,10,10,0,33,10,37,0.00,7,Fog-Rain-Thunderstorm,68
2013-8-9,59,47,35,39,35,30,100,71,42,30.81,30.72,30.66,10,9,0,25,11,32,0.00,4,Fog-Rain-Thunderstorm,175
2013-8-10,59,48,37,37,34,27,93,68,31,30.83,30.79,30.76,10,10,0,40,15,48,0.00,2,Rain-Thunderstorm,231
2013-8-11,59,47,35,39,34,27,100,68,29,30.79,30.76,30.73,10,9,0,25,15,28,0.00,2,Fog-Thunderstorm,251
2013-8-12,57,50,42,43,36,30,87,61,38,30.78,30.76,30.73,10,10,10,28,10,37,0.00,5,Rain-Thunderstorm,240
2013-8-13,59,49,39,41,33,28,87,61,34,30.79,30.76,30.72,10,10,0,29,14,44,0.00,1,Fog-Thunderstorm,274
2013-8-14,59,50,42,41,30,25,93,49,29,30.81,30.78,30.75,10,10,10,21,9,29,0.00,2,,305
2013-8-15,60,52,44,37,28,23,66,42,23,30.83,30.79,30.76,10,10,10,25,13,41,0.00,2,,286
2013-8-16,64,56,48,36,28,23,62,36,21,30.86,30.83,30.81,10,10,10,18,8,29,0.00,1,,286
2013-8-17,64,57,50,36,29,23,58,38,21,30.86,30.82,30.77,10,10,10,16,8,20,0.00,5,,250
2013-8-18,62,53,44,41,35,32,81,55,34,30.84,30.81,30.77,10,10,10,30,11,34,0.00,3,Rain-Thunderstorm,249
2013-8-19,64,55,46,41,34,30,81,49,30,30.84,30.80,30.76,10,10,7,24,11,30,0.00,3,Rain-Thunderstorm,70
2013-8-20,60,53,46,43,36,30,87,52,31,30.81,30.77,30.74,10,10,5,21,9,23,0.00,4,Rain-Thunderstorm,232
2013-8-21,60,53,46,41,37,34,76,58,44,30.83,30.79,30.74,10,10,5,20,11,28,0.00,4,Rain-Thunderstorm,261
2013-8-22,64,54,44,43,38,34,93,60,37,30.84,30.79,30.74,10,10,0,22,11,28,0.00,5,Fog-Rain-Thunderstorm,206
2013-8-23,60,51,42,43,38,28,93,63,36,30.77,30.72,30.65,10,9,0,26,12,31,0.00,4,Fog-Rain-Thunderstorm,213
2013-8-24,59,50,41,43,38,36,93,71,42,30.77,30.72,30.68,10,10,7,24,15,31,0.00,5,Rain-Thunderstorm,234
2013-8-25,53,47,41,46,42,37,100,86,67,30.84,30.80,30.75,10,8,0,30,18,34,0.00,7,Fog-Rain-Thunderstorm,212
2013-8-26,60,52,44,46,44,43,100,77,52,30.86,30.82,30.80,10,7,0,31,21,34,0.00,5,Fog-Rain-Thunderstorm,240
2013-8-27,64,55,46,43,41,32,87,65,30,30.83,30.79,30.74,10,10,10,23,10,25,0.00,3,Rain-Thunderstorm,242
2013-8-28,62,56,50,45,39,32,71,57,34,30.83,30.79,30.76,10,10,10,15,3,10,0.00,3,Thunderstorm,136
2013-8-29,66,56,46,43,37,34,71,53,32,30.92,30.86,30.83,10,10,3,17,7,24,0.00,4,Rain-Thunderstorm,135
2013-8-30,62,56,50,41,37,34,71,51,34,30.90,30.86,30.81,10,10,10,17,7,23,0.00,6,Rain-Thunderstorm,108
2013-8-31,60,53,46,45,40,36,93,66,42,30.81,30.77,30.74,10,10,7,25,8,22,0.00,5,Rain-Thunderstorm,37